Time;durP1;ratioP1;P1;durP2;ratioP2;P2;SDS_P1;SDS_P2;PMS_P1;PMS_P2;Temp;Humidity;BMP_temperature;BMP_pressure;BME280_temperature;BME280_humidity;BME280_pressure;Samples;Min_cycle;Max_cycle;Signal;HPM_P1;HPM_P2
2024/01/20 00:02:46;;;;;;;14.87;8.00;;;;;;;;;;4910960;29;20904;-85
2024/01/20 00:05:50;;;;;;;14.00;7.43;;;;;;;;;;4920984;29;20621;-85
2024/01/20 00:08:55;;;;;;;10.37;7.23;;;;;;;;;;4909888;29;20627;-85
2024/01/20 00:12:00;;;;;;;11.10;7.00;;;;;;;;;;4898649;29;20562;-86
2024/01/20 00:15:07;;;;;;;14.07;8.30;;;;;;;;;;4909559;29;20617;-85
2024/01/20 00:18:11;;;;;;;14.43;8.63;;;;;;;;;;4898501;29;20549;-85
2024/01/20 00:21:15;;;;;;;11.93;7.27;;;;;;;;;;4898497;29;20553;-87
2024/01/20 00:24:19;;;;;;;13.03;7.57;;;;;;;;;;4908977;29;20549;-86
2024/01/20 00:27:23;;;;;;;13.80;7.67;;;;;;;;;;4920865;29;20558;-86
2024/01/20 00:30:28;;;;;;;16.03;8.70;;;;;;;;;;4909343;29;21173;-86
2024/01/20 00:33:32;;;;;;;13.03;7.60;;;;;;;;;;4909049;29;20570;-86
2024/01/20 00:36:37;;;;;;;11.93;7.67;;;;;;;;;;4897929;29;20621;-85
2024/01/20 00:39:41;;;;;;;18.40;8.77;;;;;;;;;;4898446;29;20553;-86
2024/01/20 00:42:45;;;;;;;11.20;7.53;;;;;;;;;;4909221;29;20570;-86
2024/01/20 00:45:50;;;;;;;13.30;8.00;;;;;;;;;;4908960;29;20621;-86
2024/01/20 00:48:54;;;;;;;14.00;7.87;;;;;;;;;;4920749;29;20557;-86
2024/01/20 00:51:58;;;;;;;15.93;8.10;;;;;;;;;;4898224;29;20553;-85
2024/01/20 00:55:03;;;;;;;13.77;7.80;;;;;;;;;;4887754;29;20617;-86
2024/01/20 00:58:08;;;;;;;11.87;7.30;;;;;;;;;;4898824;29;21094;-86
2024/01/20 01:01:12;;;;;;;14.27;7.53;;;;;;;;;;4898693;29;20549;-86
2024/01/20 01:04:16;;;;;;;12.20;7.07;;;;;;;;;;4921064;29;20920;-86
2024/01/20 01:07:20;;;;;;;10.40;6.93;;;;;;;;;;4910836;29;21141;-85
2024/01/20 01:10:24;;;;;;;13.97;8.17;;;;;;;;;;4912279;29;20609;-85
2024/01/20 01:13:29;;;;;;;19.27;8.37;;;;;;;;;;4901795;29;20920;-86
2024/01/20 01:16:33;;;;;;;12.40;8.07;;;;;;;;;;4912288;29;21212;-85
2024/01/20 01:19:37;;;;;;;11.57;7.20;;;;;;;;;;4923885;29;20554;-85
2024/01/20 01:22:42;;;;;;;14.07;7.60;;;;;;;;;;4924328;29;20561;-85
2024/01/20 01:25:46;;;;;;;15.83;8.77;;;;;;;;;;4902705;29;20647;-85
2024/01/20 01:28:50;;;;;;;13.73;8.60;;;;;;;;;;4902623;29;20571;-86
2024/01/20 01:31:54;;;;;;;12.67;7.87;;;;;;;;;;4901594;29;20557;-86
2024/01/20 01:34:59;;;;;;;15.07;8.70;;;;;;;;;;4911972;29;20604;-86
2024/01/20 01:38:03;;;;;;;15.07;8.47;;;;;;;;;;4911535;29;20553;-86
2024/01/20 01:41:07;;;;;;;14.27;8.73;;;;;;;;;;4911740;29;20553;-85
2024/01/20 01:44:12;;;;;;;13.67;7.60;;;;;;;;;;4911045;29;21223;-86
2024/01/20 01:47:16;;;;;;;15.03;8.50;;;;;;;;;;4890047;29;20557;-86
2024/01/20 01:50:20;;;;;;;14.47;7.80;;;;;;;;;;4900834;29;20976;-86
2024/01/20 01:53:24;;;;;;;16.30;8.23;;;;;;;;;;4911499;29;20561;-86
2024/01/20 01:56:32;;;;;;;15.40;9.00;;;;;;;;;;4900131;29;20616;-86
2024/01/20 01:59:36;;;;;;;17.00;9.00;;;;;;;;;;4899760;29;20181;-85
2024/01/20 02:02:40;;;;;;;13.77;7.93;;;;;;;;;;4921886;29;20554;-85
2024/01/20 02:05:45;;;;;;;15.70;8.63;;;;;;;;;;4921957;29;20621;-86
2024/01/20 02:08:49;;;;;;;19.52;9.75;;;;;;;;;;4911803;29;20188;-86
2024/01/20 02:11:55;;;;;;;16.23;9.37;;;;;;;;;;4888644;29;20173;-85
2024/01/20 02:14:59;;;;;;;16.70;9.68;;;;;;;;;;4909667;29;20988;-85
2024/01/20 02:18:04;;;;;;;18.97;9.17;;;;;;;;;;4898567;29;20524;-86
2024/01/20 02:21:08;;;;;;;15.67;8.60;;;;;;;;;;4899098;29;20561;-85
2024/01/20 02:24:13;;;;;;;18.53;8.77;;;;;;;;;;4898951;29;21135;-86
2024/01/20 02:27:18;;;;;;;13.00;7.47;;;;;;;;;;4910216;29;20558;-85
2024/01/20 02:30:23;;;;;;;14.07;8.30;;;;;;;;;;4909606;29;20201;-86
2024/01/20 02:33:27;;;;;;;16.35;8.80;;;;;;;;;;4910005;29;20532;-86
2024/01/20 02:36:32;;;;;;;12.32;7.82;;;;;;;;;;4909418;29;20697;-85
2024/01/20 02:39:36;;;;;;;16.02;8.48;;;;;;;;;;4898927;29;20185;-85
2024/01/20 02:42:40;;;;;;;14.10;8.20;;;;;;;;;;4909950;29;20185;-86
2024/01/20 02:45:44;;;;;;;15.90;8.27;;;;;;;;;;4920831;29;20213;-87
2024/01/20 02:48:48;;;;;;;16.67;8.63;;;;;;;;;;4909932;29;20635;-85
2024/01/20 02:51:52;;;;;;;14.57;8.10;;;;;;;;;;4921233;29;20181;-87
2024/01/20 02:54:57;;;;;;;16.70;9.63;;;;;;;;;;4909509;29;20189;-87
2024/01/20 02:58:01;;;;;;;16.23;9.00;;;;;;;;;;4921386;29;20177;-87
2024/01/20 03:01:06;;;;;;;15.02;8.10;;;;;;;;;;4909348;29;20181;-86
2024/01/20 03:04:10;;;;;;;15.20;8.77;;;;;;;;;;4909122;29;20185;-85
2024/01/20 03:07:14;;;;;;;17.77;9.32;;;;;;;;;;4909201;29;20181;-86
2024/01/20 03:10:18;;;;;;;16.85;9.10;;;;;;;;;;4898150;29;20212;-85
2024/01/20 03:13:22;;;;;;;13.88;8.25;;;;;;;;;;4898859;29;20189;-86
2024/01/20 03:16:26;;;;;;;15.80;8.70;;;;;;;;;;4909105;29;20224;-85
2024/01/20 03:19:31;;;;;;;15.13;9.38;;;;;;;;;;4898547;29;20181;-87
2024/01/20 03:22:35;;;;;;;15.90;9.40;;;;;;;;;;4898363;29;20181;-85
2024/01/20 03:25:40;;;;;;;16.67;8.82;;;;;;;;;;4920601;29;20215;-85
2024/01/20 03:28:44;;;;;;;16.98;9.32;;;;;;;;;;4908587;29;20197;-86
2024/01/20 03:31:48;;;;;;;14.68;8.48;;;;;;;;;;4897189;29;20212;-85
2024/01/20 03:34:52;;;;;;;16.90;8.52;;;;;;;;;;4919827;29;20193;-85
2024/01/20 03:37:57;;;;;;;14.05;8.43;;;;;;;;;;4897794;29;20184;-85
2024/01/20 03:41:01;;;;;;;17.45;9.30;;;;;;;;;;4920500;29;20177;-85
2024/01/20 03:44:05;;;;;;;16.75;10.32;;;;;;;;;;4909021;29;20524;-86
2024/01/20 03:47:09;;;;;;;16.53;8.80;;;;;;;;;;4908374;29;20192;-87
2024/01/20 03:50:14;;;;;;;17.85;9.40;;;;;;;;;;4920142;29;20964;-87
2024/01/20 03:53:18;;;;;;;15.27;8.25;;;;;;;;;;4908352;29;20181;-85
2024/01/20 03:56:22;;;;;;;18.67;9.07;;;;;;;;;;4908342;29;20221;-86
2024/01/20 03:59:26;;;;;;;14.63;8.20;;;;;;;;;;4886903;29;20189;-86
2024/01/20 04:02:30;;;;;;;14.50;8.40;;;;;;;;;;4908161;29;20181;-85
2024/01/20 04:05:34;;;;;;;16.70;8.95;;;;;;;;;;4908061;29;20228;-86
2024/01/20 04:08:38;;;;;;;16.35;8.45;;;;;;;;;;4898297;29;20177;-87
2024/01/20 04:11:42;;;;;;;16.80;8.35;;;;;;;;;;4908095;29;20204;-87
2024/01/20 04:14:46;;;;;;;16.20;9.00;;;;;;;;;;4908349;29;20662;-87
2024/01/20 04:17:52;;;;;;;15.20;8.70;;;;;;;;;;4908475;29;20185;-85
2024/01/20 04:20:56;;;;;;;16.90;8.73;;;;;;;;;;4896679;29;20639;-86
2024/01/20 04:24:00;;;;;;;18.63;8.75;;;;;;;;;;4907920;29;20181;-85
2024/01/20 04:27:04;;;;;;;16.10;8.57;;;;;;;;;;4897335;29;20181;-85
2024/01/20 04:30:10;;;;;;;15.73;8.77;;;;;;;;;;4918915;29;20208;-85
2024/01/20 04:33:14;;;;;;;17.10;9.55;;;;;;;;;;4907934;29;20193;-86
2024/01/20 04:36:18;;;;;;;16.08;9.32;;;;;;;;;;4908261;29;20217;-86
2024/01/20 04:39:22;;;;;;;15.38;9.48;;;;;;;;;;4919583;29;20185;-86
2024/01/20 04:42:26;;;;;;;16.42;9.32;;;;;;;;;;4910479;29;20181;-85
2024/01/20 04:45:30;;;;;;;15.73;9.43;;;;;;;;;;4889277;29;20216;-86
2024/01/20 04:48:34;;;;;;;15.77;9.05;;;;;;;;;;4900373;29;20638;-85
2024/01/20 04:51:41;;;;;;;18.77;10.25;;;;;;;;;;4911482;29;20208;-86
2024/01/20 04:54:45;;;;;;;19.05;9.70;;;;;;;;;;4911044;29;20196;-87
2024/01/20 04:57:48;;;;;;;19.48;10.18;;;;;;;;;;4900423;29;20181;-86
2024/01/20 05:00:52;;;;;;;20.65;10.38;;;;;;;;;;4900760;29;20188;-86
2024/01/20 05:03:58;;;;;;;20.20;10.27;;;;;;;;;;4923078;29;20192;-86
2024/01/20 05:07:02;;;;;;;19.73;10.85;;;;;;;;;;4911577;29;20716;-85
2024/01/20 05:10:07;;;;;;;17.80;9.98;;;;;;;;;;4911453;29;20188;-86
2024/01/20 05:13:11;;;;;;;20.55;10.18;;;;;;;;;;4922860;29;20185;-85
2024/01/20 05:16:16;;;;;;;17.20;9.90;;;;;;;;;;4900527;29;20234;-86
2024/01/20 05:19:20;;;;;;;17.63;9.63;;;;;;;;;;4911343;29;20189;-86
2024/01/20 05:22:24;;;;;;;14.98;8.75;;;;;;;;;;4889619;29;20554;-85
2024/01/20 05:25:28;;;;;;;18.65;10.32;;;;;;;;;;4888928;29;20224;-86
2024/01/20 05:28:32;;;;;;;21.42;10.35;;;;;;;;;;4888940;29;20188;-85
2024/01/20 05:31:36;;;;;;;19.52;9.38;;;;;;;;;;4921954;29;20215;-86
2024/01/20 05:34:40;;;;;;;18.45;9.50;;;;;;;;;;4900236;29;20185;-86
2024/01/20 05:37:44;;;;;;;17.77;10.45;;;;;;;;;;4900254;29;20181;-86
2024/01/20 05:40:48;;;;;;;20.65;10.85;;;;;;;;;;4899505;29;20654;-87
2024/01/20 05:43:53;;;;;;;23.67;11.43;;;;;;;;;;4910386;29;20191;-86
2024/01/20 05:46:57;;;;;;;21.10;10.68;;;;;;;;;;4899815;29;20594;-86
2024/01/20 05:50:05;;;;;;;19.15;10.90;;;;;;;;;;4899335;29;20192;-86
2024/01/20 05:53:09;;;;;;;20.48;11.25;;;;;;;;;;4899052;29;20538;-87
2024/01/20 05:56:20;;;;;;;20.92;11.73;;;;;;;;;;4910419;29;20590;-86
2024/01/20 05:59:24;;;;;;;18.58;11.02;;;;;;;;;;4909885;29;20212;-86
2024/01/20 06:02:30;;;;;;;20.02;11.40;;;;;;;;;;4909828;29;20189;-86
2024/01/20 06:05:34;;;;;;;19.38;10.50;;;;;;;;;;4898898;29;20235;-86
2024/01/20 06:08:38;;;;;;;20.55;11.23;;;;;;;;;;4921503;29;20187;-86
2024/01/20 06:11:42;;;;;;;23.45;11.60;;;;;;;;;;4909666;29;20211;-86
2024/01/20 06:14:46;;;;;;;23.73;11.75;;;;;;;;;;4909389;29;20188;-86
2024/01/20 06:17:51;;;;;;;19.40;10.82;;;;;;;;;;4888727;29;20184;-86
2024/01/20 06:20:56;;;;;;;19.92;11.55;;;;;;;;;;4909485;29;20188;-86
2024/01/20 06:24:00;;;;;;;19.63;11.48;;;;;;;;;;4909659;29;20686;-86
2024/01/20 06:27:04;;;;;;;20.35;10.73;;;;;;;;;;4908275;29;20192;-85
2024/01/20 06:30:09;;;;;;;22.67;10.90;;;;;;;;;;4920679;29;20192;-86
2024/01/20 06:33:15;;;;;;;19.38;11.15;;;;;;;;;;4886989;29;20661;-85
2024/01/20 06:36:26;;;;;;;19.35;11.10;;;;;;;;;;4897894;29;20243;-86
2024/01/20 06:39:30;;;;;;;19.23;10.88;;;;;;;;;;4909096;29;20661;-86
2024/01/20 06:42:35;;;;;;;17.58;10.35;;;;;;;;;;4920782;29;20257;-85
2024/01/20 06:45:39;;;;;;;20.70;10.07;;;;;;;;;;4920190;29;20228;-86
2024/01/20 06:48:43;;;;;;;16.83;10.65;;;;;;;;;;4909544;29;20192;-86
2024/01/20 06:51:48;;;;;;;19.98;11.15;;;;;;;;;;4908933;29;20717;-84
2024/01/20 06:54:52;;;;;;;20.70;10.75;;;;;;;;;;4897544;29;20550;-87
2024/01/20 06:57:56;;;;;;;18.48;11.63;;;;;;;;;;4908296;29;20205;-87
2024/01/20 07:01:00;;;;;;;20.10;10.75;;;;;;;;;;4886473;29;20200;-86
2024/01/20 07:04:04;;;;;;;23.52;12.20;;;;;;;;;;4886616;29;20192;-86
2024/01/20 07:07:08;;;;;;;25.92;11.50;;;;;;;;;;4897675;29;20192;-84
2024/01/20 07:10:14;;;;;;;22.25;11.95;;;;;;;;;;4908919;29;20555;-86
2024/01/20 07:13:18;;;;;;;24.33;13.32;;;;;;;;;;4898569;29;20188;-86
2024/01/20 07:16:22;;;;;;;22.00;12.45;;;;;;;;;;4910494;29;20243;-85
2024/01/20 07:19:26;;;;;;;26.27;12.65;;;;;;;;;;4908770;29;20191;-86
2024/01/20 07:22:31;;;;;;;23.15;13.27;;;;;;;;;;4888009;29;20188;-86
2024/01/20 07:25:36;;;;;;;23.70;13.07;;;;;;;;;;4898514;29;20235;-85
2024/01/20 07:28:41;;;;;;;26.55;12.80;;;;;;;;;;4908787;29;20196;-84
2024/01/20 07:31:45;;;;;;;26.58;13.25;;;;;;;;;;4908284;29;20231;-85
2024/01/20 07:34:49;;;;;;;26.33;14.05;;;;;;;;;;4898444;29;20192;-85
2024/01/20 07:37:53;;;;;;;25.02;13.45;;;;;;;;;;4887638;29;20551;-82
2024/01/20 07:40:59;;;;;;;28.60;15.23;;;;;;;;;;4921263;29;20184;-87
2024/01/20 07:44:03;;;;;;;28.75;15.13;;;;;;;;;;4888191;29;20665;-90
2024/01/20 07:47:08;;;;;;;27.83;14.55;;;;;;;;;;4898079;29;20196;-86
2024/01/20 07:50:12;;;;;;;26.80;14.15;;;;;;;;;;4909316;29;20192;-86
2024/01/20 07:53:16;;;;;;;32.22;15.65;;;;;;;;;;4907517;29;20192;-85
2024/01/20 07:56:20;;;;;;;26.70;13.32;;;;;;;;;;4908090;29;20232;-87
2024/01/20 07:59:24;;;;;;;29.40;15.27;;;;;;;;;;4919749;29;20184;-86
2024/01/20 08:02:30;;;;;;;24.50;13.38;;;;;;;;;;4909180;29;20184;-87
2024/01/20 08:05:34;;;;;;;24.23;14.25;;;;;;;;;;4908570;29;20273;-86
2024/01/20 08:08:38;;;;;;;27.20;14.98;;;;;;;;;;4908509;29;20188;-86
2024/01/20 08:11:42;;;;;;;27.90;15.43;;;;;;;;;;4907937;29;20211;-87
2024/01/20 08:14:46;;;;;;;29.50;16.23;;;;;;;;;;4896813;29;20572;-87
2024/01/20 08:17:51;;;;;;;35.53;20.20;;;;;;;;;;4899762;29;20560;-86
2024/01/20 08:20:55;;;;;;;34.33;18.97;;;;;;;;;;4889958;29;20568;-86
2024/01/20 08:23:59;;;;;;;29.57;17.60;;;;;;;;;;4911067;29;20915;-85
2024/01/20 08:27:04;;;;;;;26.13;17.60;;;;;;;;;;4923137;29;20636;-86
2024/01/20 08:30:08;;;;;;;31.00;16.63;;;;;;;;;;4911937;29;20568;-87
2024/01/20 08:33:13;;;;;;;24.90;14.87;;;;;;;;;;4890708;29;20616;-86
2024/01/20 08:36:18;;;;;;;24.70;14.20;;;;;;;;;;4889609;29;21212;-86
2024/01/20 08:39:22;;;;;;;33.80;14.73;;;;;;;;;;4888885;29;20560;-86
2024/01/20 08:42:26;;;;;;;32.13;14.90;;;;;;;;;;4911185;29;20638;-87
2024/01/20 08:45:32;;;;;;;153.27;22.97;;;;;;;;;;4911072;29;20628;-86
2024/01/20 08:48:36;;;;;;;57.53;15.90;;;;;;;;;;4900312;29;20557;-87
2024/01/20 08:51:40;;;;;;;56.83;16.47;;;;;;;;;;4910896;29;20624;-86
2024/01/20 08:54:44;;;;;;;31.23;16.07;;;;;;;;;;4910495;29;20564;-86
2024/01/20 08:57:48;;;;;;;25.03;15.60;;;;;;;;;;4900065;29;20568;-86
2024/01/20 09:00:52;;;;;;;26.23;16.37;;;;;;;;;;4910691;29;20564;-86
2024/01/20 09:03:56;;;;;;;27.67;14.57;;;;;;;;;;4911344;29;21132;-86
2024/01/20 09:07:00;;;;;;;31.70;14.37;;;;;;;;;;4910892;29;20627;-86
2024/01/20 09:10:05;;;;;;;22.27;13.30;;;;;;;;;;4911101;29;21105;-87
2024/01/20 09:13:09;;;;;;;23.33;14.53;;;;;;;;;;4889378;29;21196;-87
2024/01/20 09:16:13;;;;;;;18.40;12.67;;;;;;;;;;4899699;29;20655;-86
2024/01/20 09:19:18;;;;;;;20.27;12.80;;;;;;;;;;4900341;29;20576;-86
2024/01/20 09:22:21;;;;;;;23.07;13.20;;;;;;;;;;4910673;29;20556;-87
2024/01/20 09:25:26;;;;;;;25.23;15.90;;;;;;;;;;4910760;29;20624;-86
2024/01/20 09:28:31;;;;;;;22.90;13.73;;;;;;;;;;4909159;29;20568;-86
2024/01/20 09:31:35;;;;;;;18.00;11.30;;;;;;;;;;4899490;29;20569;-87
2024/01/20 09:34:39;;;;;;;18.60;11.83;;;;;;;;;;4899642;29;20588;-86
2024/01/20 09:37:44;;;;;;;19.23;11.37;;;;;;;;;;4910569;29;20568;-86
2024/01/20 09:40:48;;;;;;;16.20;9.80;;;;;;;;;;4910083;29;20564;-87
2024/01/20 09:43:52;;;;;;;18.00;11.53;;;;;;;;;;4888519;29;20550;-86
2024/01/20 09:46:57;;;;;;;18.67;11.37;;;;;;;;;;4910133;29;20619;-86
2024/01/20 09:50:04;;;;;;;19.63;11.97;;;;;;;;;;4909885;29;20560;-87
2024/01/20 09:53:16;;;;;;;15.13;10.17;;;;;;;;;;4898659;29;20616;-86
2024/01/20 09:56:20;;;;;;;18.40;10.83;;;;;;;;;;4899108;29;20628;-87
2024/01/20 09:59:27;;;;;;;19.33;10.80;;;;;;;;;;4909474;29;20931;-87
2024/01/20 10:02:33;;;;;;;70.33;15.07;;;;;;;;;;4887760;29;20564;-88
2024/01/20 10:05:38;;;;;;;50.30;13.93;;;;;;;;;;4909301;29;20632;-88
2024/01/20 10:08:42;;;;;;;40.27;12.37;;;;;;;;;;4888592;29;20561;-84
2024/01/20 10:11:46;;;;;;;19.60;11.63;;;;;;;;;;4898687;29;20558;-87
2024/01/20 10:14:51;;;;;;;14.63;11.03;;;;;;;;;;4920737;29;20626;-86
2024/01/20 10:17:56;;;;;;;15.77;10.30;;;;;;;;;;4898934;29;20554;-86
2024/01/20 10:21:05;;;;;;;17.27;11.00;;;;;;;;;;4887789;29;20558;-87
2024/01/20 10:24:10;;;;;;;17.83;11.30;;;;;;;;;;4909178;29;20946;-87
2024/01/20 10:27:24;;;;;;;16.17;10.47;;;;;;;;;;4888014;29;20557;-86
2024/01/20 10:30:29;;;;;;;14.77;10.00;;;;;;;;;;4908728;29;20569;-87
2024/01/20 10:33:34;;;;;;;15.97;10.53;;;;;;;;;;4908551;29;20624;-86
2024/01/20 10:36:41;;;;;;;16.27;9.83;;;;;;;;;;4908840;29;20617;-87
2024/01/20 10:39:46;;;;;;;18.77;9.57;;;;;;;;;;4887196;29;20561;-87
2024/01/20 10:42:55;;;;;;;13.63;9.87;;;;;;;;;;4887096;29;20553;-87
2024/01/20 10:46:11;;;;;;;15.73;9.90;;;;;;;;;;4897977;29;21205;-87
2024/01/20 10:49:17;;;;;;;13.60;9.27;;;;;;;;;;4909705;29;20557;-87
2024/01/20 10:52:21;;;;;;;14.57;10.37;;;;;;;;;;4897850;29;20605;-86
2024/01/20 10:55:26;;;;;;;16.53;9.70;;;;;;;;;;4920205;29;20625;-86
2024/01/20 10:58:35;;;;;;;13.40;9.20;;;;;;;;;;4886924;29;20554;-86
2024/01/20 11:01:42;;;;;;;14.30;8.60;;;;;;;;;;4908668;29;20185;-86
2024/01/20 11:04:46;;;;;;;14.80;9.47;;;;;;;;;;4908203;29;21115;-85
2024/01/20 11:08:04;;;;;;;12.50;8.43;;;;;;;;;;4908086;29;20562;-86
2024/01/20 11:11:08;;;;;;;12.70;7.50;;;;;;;;;;4920538;29;20539;-86
2024/01/20 11:14:13;;;;;;;9.47;5.80;;;;;;;;;;4908979;29;20613;-86
2024/01/20 11:17:18;;;;;;;12.23;8.63;;;;;;;;;;4909705;29;20209;-85
2024/01/20 11:20:22;;;;;;;11.17;7.70;;;;;;;;;;4909337;29;20177;-86
2024/01/20 11:23:27;;;;;;;11.33;7.63;;;;;;;;;;4897478;29;20180;-84
2024/01/20 11:26:37;;;;;;;12.30;8.30;;;;;;;;;;4918435;29;20220;-87
2024/01/20 11:29:43;;;;;;;10.87;7.37;;;;;;;;;;4896830;29;20185;-84
2024/01/20 11:32:49;;;;;;;10.93;7.33;;;;;;;;;;4919376;29;20212;-87
2024/01/20 11:35:54;;;;;;;11.83;6.97;;;;;;;;;;4906784;29;20690;-87
2024/01/20 11:38:59;;;;;;;10.70;7.13;;;;;;;;;;4885946;29;20185;-87
2024/01/20 11:42:04;;;;;;;10.73;7.43;;;;;;;;;;4906824;29;20180;-88
2024/01/20 11:45:11;;;;;;;11.83;7.40;;;;;;;;;;4918160;29;20633;-87
2024/01/20 11:48:18;;;;;;;8.77;6.40;;;;;;;;;;4907239;29;20181;-88
2024/01/20 11:51:22;;;;;;;16.40;8.40;;;;;;;;;;4906018;29;20557;-88
2024/01/20 11:54:26;;;;;;;9.13;6.23;;;;;;;;;;4885662;29;20528;-87
2024/01/20 11:57:30;;;;;;;9.57;6.03;;;;;;;;;;4885700;29;20185;-87
2024/01/20 12:00:35;;;;;;;10.50;5.80;;;;;;;;;;4910491;29;20542;-86
2024/01/20 12:03:41;;;;;;;9.87;6.20;;;;;;;;;;4886919;29;20557;-89
2024/01/20 12:06:45;;;;;;;8.03;6.20;;;;;;;;;;4886490;29;20616;-88
2024/01/20 12:09:50;;;;;;;10.40;6.97;;;;;;;;;;4908454;29;20561;-89
2024/01/20 12:12:55;;;;;;;13.60;6.73;;;;;;;;;;4907624;29;20609;-89
2024/01/20 12:15:59;;;;;;;8.97;6.17;;;;;;;;;;4908390;29;20655;-88
2024/01/20 12:19:04;;;;;;;6.20;4.37;;;;;;;;;;4907825;29;20599;-89
2024/01/20 12:22:12;;;;;;;5.03;3.67;;;;;;;;;;4897279;29;20189;-90
2024/01/20 12:25:16;;;;;;;9.13;4.47;;;;;;;;;;4886968;29;20217;-89
2024/01/20 12:28:21;;;;;;;6.03;3.80;;;;;;;;;;4886708;29;21122;-89
2024/01/20 12:31:26;;;;;;;6.47;4.37;;;;;;;;;;4897512;29;20553;-89
2024/01/20 12:38:02;;;;;;;6.93;4.87;;;;;;;;;;4880495;29;20626;-87
2024/01/20 12:41:07;;;;;;;8.40;4.57;;;;;;;;;;4870750;29;20563;-86
2024/01/20 12:44:11;;;;;;;8.03;4.70;;;;;;;;;;4887353;29;20567;-87
2024/01/20 12:47:16;;;;;;;7.00;4.63;;;;;;;;;;4858846;29;20560;-85
2024/01/20 12:50:20;;;;;;;10.67;4.73;;;;;;;;;;4871144;29;20560;-83
2024/01/20 12:53:24;;;;;;;7.43;4.33;;;;;;;;;;4880242;29;20615;-86
2024/01/20 12:56:28;;;;;;;8.17;4.77;;;;;;;;;;4870658;29;20631;-87
2024/01/20 12:59:32;;;;;;;7.47;4.53;;;;;;;;;;4870437;29;20563;-86
2024/01/20 13:02:36;;;;;;;6.83;4.40;;;;;;;;;;4861584;29;20560;-86
2024/01/20 13:05:43;;;;;;;9.17;4.67;;;;;;;;;;4884894;29;20619;-86
2024/01/20 13:08:48;;;;;;;7.07;4.80;;;;;;;;;;4874108;29;20938;-87
2024/01/20 13:11:52;;;;;;;8.33;5.00;;;;;;;;;;4874073;29;20568;-86
2024/01/20 13:14:56;;;;;;;7.50;4.90;;;;;;;;;;4883899;29;21113;-86
2024/01/20 13:18:00;;;;;;;8.13;5.00;;;;;;;;;;4862315;29;20560;-86
2024/01/20 13:21:05;;;;;;;4.70;3.53;;;;;;;;;;4873474;29;20564;-87
2024/01/20 13:24:09;;;;;;;6.13;4.23;;;;;;;;;;4862104;29;20552;-86
2024/01/20 13:27:13;;;;;;;5.67;4.40;;;;;;;;;;4862115;29;20556;-86
2024/01/20 13:30:19;;;;;;;5.47;3.73;;;;;;;;;;4882788;29;20556;-85
2024/01/20 13:33:24;;;;;;;5.67;3.67;;;;;;;;;;4861163;29;20624;-81
2024/01/20 13:36:28;;;;;;;5.40;4.00;;;;;;;;;;4860847;29;21155;-82
2024/01/20 13:39:33;;;;;;;4.37;3.30;;;;;;;;;;4872065;29;20187;-85
2024/01/20 13:42:37;;;;;;;4.13;3.07;;;;;;;;;;4871605;29;20183;-86
2024/01/20 13:45:42;;;;;;;5.33;3.37;;;;;;;;;;4882044;29;20226;-85
2024/01/20 13:48:48;;;;;;;4.77;3.20;;;;;;;;;;4882240;29;20191;-85
2024/01/20 13:51:52;;;;;;;5.60;3.93;;;;;;;;;;4881691;29;20183;-85
2024/01/20 13:54:56;;;;;;;8.67;3.50;;;;;;;;;;4871239;29;20211;-85
2024/01/20 13:58:01;;;;;;;4.83;3.80;;;;;;;;;;4860089;29;20190;-85
2024/01/20 14:01:05;;;;;;;5.70;3.50;;;;;;;;;;4870491;29;20191;-85
2024/01/20 14:04:11;;;;;;;4.03;3.43;;;;;;;;;;4871448;29;20187;-85
2024/01/20 14:07:15;;;;;;;4.77;3.23;;;;;;;;;;4870772;29;20179;-88
2024/01/20 14:10:20;;;;;;;5.37;3.60;;;;;;;;;;4870301;29;20684;-85
2024/01/20 14:13:23;;;;;;;5.57;3.30;;;;;;;;;;4869664;29;20211;-85
2024/01/20 14:16:30;;;;;;;4.07;3.30;;;;;;;;;;4870439;29;20627;-86
2024/01/20 14:19:34;;;;;;;4.60;3.20;;;;;;;;;;4880830;29;20187;-85
2024/01/20 14:22:38;;;;;;;5.00;3.37;;;;;;;;;;4871013;29;20186;-87
2024/01/20 14:25:43;;;;;;;5.27;3.20;;;;;;;;;;4859163;29;20615;-86
2024/01/20 14:28:48;;;;;;;4.63;2.97;;;;;;;;;;4870136;29;20564;-85
2024/01/20 14:31:54;;;;;;;4.10;3.60;;;;;;;;;;4868944;29;20560;-86
2024/01/20 14:34:58;;;;;;;4.40;2.70;;;;;;;;;;4869010;29;20612;-84
2024/01/20 14:38:03;;;;;;;4.60;2.77;;;;;;;;;;4879311;29;20568;-84
2024/01/20 14:41:07;;;;;;;3.23;2.50;;;;;;;;;;4878736;29;20564;-84
2024/01/20 14:44:12;;;;;;;4.87;2.80;;;;;;;;;;4868591;29;20548;-85
2024/01/20 14:47:16;;;;;;;5.77;3.10;;;;;;;;;;4867912;29;20564;-85
2024/01/20 14:50:20;;;;;;;3.40;2.63;;;;;;;;;;4878310;29;20563;-87
2024/01/20 14:53:24;;;;;;;6.37;2.80;;;;;;;;;;4868106;29;20611;-86
2024/01/20 14:56:29;;;;;;;3.47;2.70;;;;;;;;;;4878570;29;20645;-86
2024/01/20 14:59:33;;;;;;;4.77;2.80;;;;;;;;;;4868118;29;20568;-84
2024/01/20 15:02:37;;;;;;;3.37;2.40;;;;;;;;;;4878072;29;20560;-85
2024/01/20 15:05:41;;;;;;;3.63;2.97;;;;;;;;;;4867547;29;20619;-85
2024/01/20 15:08:47;;;;;;;5.03;2.90;;;;;;;;;;4868160;29;20564;-87
2024/01/20 15:11:51;;;;;;;4.97;3.00;;;;;;;;;;4846056;29;20552;-84
2024/01/20 15:14:56;;;;;;;6.53;3.17;;;;;;;;;;4867167;29;20641;-91
2024/01/20 15:18:00;;;;;;;6.67;3.50;;;;;;;;;;4855860;29;20552;-89
2024/01/20 15:21:04;;;;;;;5.07;3.37;;;;;;;;;;4867028;29;20568;-86
2024/01/20 15:24:09;;;;;;;4.93;3.23;;;;;;;;;;4867166;29;20561;-87
2024/01/20 15:27:13;;;;;;;6.33;2.80;;;;;;;;;;4856592;29;20564;-87
2024/01/20 15:30:17;;;;;;;4.33;2.80;;;;;;;;;;4877831;29;20560;-87
2024/01/20 15:33:21;;;;;;;3.27;2.70;;;;;;;;;;4855525;29;20552;-87
2024/01/20 15:36:25;;;;;;;10.30;3.57;;;;;;;;;;4866434;29;20650;-87
2024/01/20 15:39:30;;;;;;;3.80;2.80;;;;;;;;;;4866487;29;20564;-87
2024/01/20 15:42:34;;;;;;;4.27;3.10;;;;;;;;;;4866743;29;20564;-87
2024/01/20 15:45:38;;;;;;;6.80;2.80;;;;;;;;;;4867384;29;20623;-87
2024/01/20 15:48:43;;;;;;;5.07;3.07;;;;;;;;;;4856119;29;20560;-86
2024/01/20 15:51:49;;;;;;;4.23;2.73;;;;;;;;;;4876906;29;20560;-87
2024/01/20 15:54:53;;;;;;;3.90;2.80;;;;;;;;;;4867025;29;20619;-88
2024/01/20 15:57:57;;;;;;;3.77;2.67;;;;;;;;;;4876896;29;20564;-88
2024/01/20 16:01:01;;;;;;;4.80;2.77;;;;;;;;;;4854385;29;20560;-87
2024/01/20 16:04:05;;;;;;;5.43;3.20;;;;;;;;;;4855718;29;20556;-87
2024/01/20 16:07:10;;;;;;;3.10;2.80;;;;;;;;;;4855410;29;20904;-88
2024/01/20 16:10:14;;;;;;;4.17;2.87;;;;;;;;;;4866723;29;20552;-87
2024/01/20 16:13:19;;;;;;;3.17;2.70;;;;;;;;;;4876709;29;21105;-87
2024/01/20 16:16:23;;;;;;;3.07;2.70;;;;;;;;;;4865981;29;20620;-85
2024/01/20 16:19:27;;;;;;;10.70;3.93;;;;;;;;;;4866445;29;20559;-86
2024/01/20 16:22:31;;;;;;;5.27;3.10;;;;;;;;;;4875566;29;21154;-86
2024/01/20 16:25:36;;;;;;;6.80;3.13;;;;;;;;;;4875841;29;20607;-85
2024/01/20 16:28:40;;;;;;;4.70;3.00;;;;;;;;;;4865614;29;20911;-85
2024/01/20 16:31:46;;;;;;;4.80;3.10;;;;;;;;;;4853754;29;20560;-85
2024/01/20 16:34:50;;;;;;;10.37;3.60;;;;;;;;;;4865142;29;20607;-85
2024/01/20 16:37:54;;;;;;;5.30;3.57;;;;;;;;;;4877730;29;20548;-85
2024/01/20 16:40:58;;;;;;;6.07;3.57;;;;;;;;;;4869765;29;20556;-84
2024/01/20 16:44:04;;;;;;;4.43;3.10;;;;;;;;;;4879246;29;20552;-84
2024/01/20 16:47:08;;;;;;;5.43;3.43;;;;;;;;;;4868865;29;20560;-84
2024/01/20 16:50:12;;;;;;;5.63;3.40;;;;;;;;;;4868835;29;21112;-86
2024/01/20 16:53:16;;;;;;;4.70;3.20;;;;;;;;;;4857302;29;20560;-84
2024/01/20 16:56:21;;;;;;;4.73;3.17;;;;;;;;;;4878048;29;20611;-86
2024/01/20 16:59:27;;;;;;;7.10;3.23;;;;;;;;;;4878867;29;20564;-85
2024/01/20 17:02:31;;;;;;;5.70;3.50;;;;;;;;;;4856969;29;20563;-85
2024/01/20 17:05:35;;;;;;;7.37;2.97;;;;;;;;;;4877723;29;20623;-85
2024/01/20 17:08:42;;;;;;;4.67;3.00;;;;;;;;;;4868019;29;20564;-85
2024/01/20 17:11:47;;;;;;;4.83;3.00;;;;;;;;;;4867856;29;21121;-85
2024/01/20 17:14:51;;;;;;;7.83;3.27;;;;;;;;;;4877560;29;20615;-84
2024/01/20 17:17:55;;;;;;;5.73;3.43;;;;;;;;;;4856450;29;20556;-85
2024/01/20 17:21:02;;;;;;;5.20;3.63;;;;;;;;;;4868678;29;20556;-84
2024/01/20 17:24:08;;;;;;;6.10;3.47;;;;;;;;;;4868195;29;21133;-85
2024/01/20 17:27:12;;;;;;;5.57;3.50;;;;;;;;;;4868171;29;20564;-85
2024/01/20 17:30:16;;;;;;;5.10;3.30;;;;;;;;;;4856711;29;20560;-84
2024/01/20 17:33:20;;;;;;;7.30;3.90;;;;;;;;;;4868164;29;21113;-86
2024/01/20 17:36:26;;;;;;;5.43;3.63;;;;;;;;;;4857556;29;20647;-87
2024/01/20 17:39:37;;;;;;;5.80;3.20;;;;;;;;;;4857428;29;20543;-87
2024/01/20 17:42:42;;;;;;;4.80;3.47;;;;;;;;;;4878853;29;20548;-87
2024/01/20 17:45:50;;;;;;;9.97;3.57;;;;;;;;;;4867884;29;20623;-86
2024/01/20 17:48:54;;;;;;;5.23;3.43;;;;;;;;;;4856231;29;20545;-87
2024/01/20 17:51:58;;;;;;;4.83;3.80;;;;;;;;;;4856845;29;20547;-87
2024/01/20 17:55:02;;;;;;;6.47;3.87;;;;;;;;;;4856113;29;20659;-86
2024/01/20 17:58:09;;;;;;;7.93;3.63;;;;;;;;;;4877816;29;20549;-86
2024/01/20 18:01:13;;;;;;;5.77;3.40;;;;;;;;;;4878736;29;20544;-86
2024/01/20 18:04:17;;;;;;;4.17;3.33;;;;;;;;;;4867343;29;20884;-86
2024/01/20 18:07:21;;;;;;;5.67;3.50;;;;;;;;;;4868173;29;20548;-87
2024/01/20 18:10:25;;;;;;;6.27;3.57;;;;;;;;;;4857130;29;21088;-87
2024/01/20 18:13:30;;;;;;;5.10;3.80;;;;;;;;;;4867816;29;20556;-86
2024/01/20 18:16:37;;;;;;;6.13;3.50;;;;;;;;;;4845621;29;20620;-87